sensor_id;sensor_type;location;lat;lon;timestamp;temperature;humidity
9662;DHT22;24982;52.344;12.990;2022-07-29T00:01:15;15.40;99.90
9662;DHT22;24982;52.344;12.990;2022-07-29T00:04:17;15.40;99.90
9662;DHT22;24982;52.344;12.990;2022-07-29T00:07:19;15.50;99.90
9662;DHT22;24982;52.344;12.990;2022-07-29T00:10:21;15.40;99.90
9662;DHT22;24982;52.344;12.990;2022-07-29T00:13:25;15.30;99.90
9662;DHT22;24982;52.344;12.990;2022-07-29T00:16:27;15.30;99.90
9662;DHT22;24982;52.344;12.990;2022-07-29T00:19:29;15.30;99.90
9662;DHT22;24982;52.344;12.990;2022-07-29T00:22:31;15.40;99.90
9662;DHT22;24982;52.344;12.990;2022-07-29T00:25:33;15.30;99.90
9662;DHT22;24982;52.344;12.990;2022-07-29T00:28:36;15.30;99.90
9662;DHT22;24982;52.344;12.990;2022-07-29T00:31:38;15.30;99.90
9662;DHT22;24982;52.344;12.990;2022-07-29T00:34:40;15.30;99.90
9662;DHT22;24982;52.344;12.990;2022-07-29T00:38:16;15.30;99.90
9662;DHT22;24982;52.344;12.990;2022-07-29T00:41:21;15.20;99.90
9662;DHT22;24982;52.344;12.990;2022-07-29T00:44:24;15.20;99.90
9662;DHT22;24982;52.344;12.990;2022-07-29T00:47:26;15.20;99.90
9662;DHT22;24982;52.344;12.990;2022-07-29T00:50:28;15.20;99.90
9662;DHT22;24982;52.344;12.990;2022-07-29T00:53:31;15.20;99.90
9662;DHT22;24982;52.344;12.990;2022-07-29T00:56:33;15.20;99.90
9662;DHT22;24982;52.344;12.990;2022-07-29T00:59:37;15.20;99.90
9662;DHT22;24982;52.344;12.990;2022-07-29T01:02:39;15.30;99.90
9662;DHT22;24982;52.344;12.990;2022-07-29T01:05:43;15.30;99.90
9662;DHT22;24982;52.344;12.990;2022-07-29T01:08:47;15.30;99.90
9662;DHT22;24982;52.344;12.990;2022-07-29T01:11:49;15.30;99.90
9662;DHT22;24982;52.344;12.990;2022-07-29T01:14:54;15.30;99.90
9662;DHT22;24982;52.344;12.990;2022-07-29T01:18:04;15.20;99.90
9662;DHT22;24982;52.344;12.990;2022-07-29T01:21:35;15.20;99.90
9662;DHT22;24982;52.344;12.990;2022-07-29T01:28:42;15.20;99.90
9662;DHT22;24982;52.344;12.990;2022-07-29T01:31:51;15.20;99.90
9662;DHT22;24982;52.344;12.990;2022-07-29T01:34:58;15.30;99.90
9662;DHT22;24982;52.344;12.990;2022-07-29T01:38:08;15.40;99.90
9662;DHT22;24982;52.344;12.990;2022-07-29T01:41:14;15.40;99.90
9662;DHT22;24982;52.344;12.990;2022-07-29T01:44:21;15.30;99.90
9662;DHT22;24982;52.344;12.990;2022-07-29T01:47:33;15.40;99.90
9662;DHT22;24982;52.344;12.990;2022-07-29T01:50:46;15.30;99.90
9662;DHT22;24982;52.344;12.990;2022-07-29T01:53:55;15.30;99.90
9662;DHT22;24982;52.344;12.990;2022-07-29T01:56:59;15.30;99.90
9662;DHT22;24982;52.344;12.990;2022-07-29T02:00:04;15.30;99.90
9662;DHT22;24982;52.344;12.990;2022-07-29T02:03:13;15.30;99.90
9662;DHT22;24982;52.344;12.990;2022-07-29T02:06:20;15.30;99.90
9662;DHT22;24982;52.344;12.990;2022-07-29T02:09:23;15.40;99.90
9662;DHT22;24982;52.344;12.990;2022-07-29T02:12:28;15.40;99.90
9662;DHT22;24982;52.344;12.990;2022-07-29T02:15:33;15.50;99.90
9662;DHT22;24982;52.344;12.990;2022-07-29T02:18:36;15.50;99.90
9662;DHT22;24982;52.344;12.990;2022-07-29T02:21:39;15.50;99.90
9662;DHT22;24982;52.344;12.990;2022-07-29T02:24:44;15.50;99.90
9662;DHT22;24982;52.344;12.990;2022-07-29T02:27:47;15.50;99.90
9662;DHT22;24982;52.344;12.990;2022-07-29T02:30:54;15.50;99.90
9662;DHT22;24982;52.344;12.990;2022-07-29T02:33:57;15.50;99.90
9662;DHT22;24982;52.344;12.990;2022-07-29T02:37:00;15.50;99.90
9662;DHT22;24982;52.344;12.990;2022-07-29T02:40:04;15.50;99.90
9662;DHT22;24982;52.344;12.990;2022-07-29T02:43:09;15.40;99.90
9662;DHT22;24982;52.344;12.990;2022-07-29T02:46:27;15.40;99.90
9662;DHT22;24982;52.344;12.990;2022-07-29T02:49:35;15.50;99.90
9662;DHT22;24982;52.344;12.990;2022-07-29T02:52:42;15.50;99.90
9662;DHT22;24982;52.344;12.990;2022-07-29T02:55:48;15.50;99.90
9662;DHT22;24982;52.344;12.990;2022-07-29T02:58:54;15.40;99.90
9662;DHT22;24982;52.344;12.990;2022-07-29T03:01:59;15.40;99.90
9662;DHT22;24982;52.344;12.990;2022-07-29T03:05:03;15.30;99.90
9662;DHT22;24982;52.344;12.990;2022-07-29T03:08:08;15.30;99.90
9662;DHT22;24982;52.344;12.990;2022-07-29T03:11:11;15.20;99.90
9662;DHT22;24982;52.344;12.990;2022-07-29T03:14:14;15.30;99.90
9662;DHT22;24982;52.344;12.990;2022-07-29T03:17:19;15.30;99.90
9662;DHT22;24982;52.344;12.990;2022-07-29T03:20:21;15.30;99.90
9662;DHT22;24982;52.344;12.990;2022-07-29T03:23:24;15.30;99.90
9662;DHT22;24982;52.344;12.990;2022-07-29T03:26:28;15.20;99.90
9662;DHT22;24982;52.344;12.990;2022-07-29T03:29:30;15.20;99.90
9662;DHT22;24982;52.344;12.990;2022-07-29T03:32:34;15.10;99.90
9662;DHT22;24982;52.344;12.990;2022-07-29T03:35:36;15.10;99.90
9662;DHT22;24982;52.344;12.990;2022-07-29T03:38:40;15.00;99.90
9662;DHT22;24982;52.344;12.990;2022-07-29T03:41:46;15.00;99.90
9662;DHT22;24982;52.344;12.990;2022-07-29T03:44:50;15.00;99.90
9662;DHT22;24982;52.344;12.990;2022-07-29T03:47:57;15.00;99.90
9662;DHT22;24982;52.344;12.990;2022-07-29T03:51:00;15.10;99.90
9662;DHT22;24982;52.344;12.990;2022-07-29T03:54:04;15.10;99.90
9662;DHT22;24982;52.344;12.990;2022-07-29T03:57:07;15.10;99.90
9662;DHT22;24982;52.344;12.990;2022-07-29T04:00:10;15.10;99.90
9662;DHT22;24982;52.344;12.990;2022-07-29T04:03:15;15.20;99.90
9662;DHT22;24982;52.344;12.990;2022-07-29T04:06:17;15.20;99.90
9662;DHT22;24982;52.344;12.990;2022-07-29T04:09:19;15.20;99.90
9662;DHT22;24982;52.344;12.990;2022-07-29T04:12:21;15.30;99.90
9662;DHT22;24982;52.344;12.990;2022-07-29T04:15:23;15.40;99.90
9662;DHT22;24982;52.344;12.990;2022-07-29T04:18:26;15.50;99.90
9662;DHT22;24982;52.344;12.990;2022-07-29T04:21:28;15.60;99.90
9662;DHT22;24982;52.344;12.990;2022-07-29T04:24:31;15.60;99.90
9662;DHT22;24982;52.344;12.990;2022-07-29T04:27:33;15.70;99.90
9662;DHT22;24982;52.344;12.990;2022-07-29T04:30:35;15.70;99.90
9662;DHT22;24982;52.344;12.990;2022-07-29T04:33:39;15.80;99.90
9662;DHT22;24982;52.344;12.990;2022-07-29T04:36:41;15.90;99.90
9662;DHT22;24982;52.344;12.990;2022-07-29T04:39:43;16.00;99.90
9662;DHT22;24982;52.344;12.990;2022-07-29T04:42:46;16.00;99.90
9662;DHT22;24982;52.344;12.990;2022-07-29T04:45:48;16.10;99.90
9662;DHT22;24982;52.344;12.990;2022-07-29T04:48:51;16.20;99.90
9662;DHT22;24982;52.344;12.990;2022-07-29T04:51:53;16.20;99.90
9662;DHT22;24982;52.344;12.990;2022-07-29T04:54:55;16.30;99.90
9662;DHT22;24982;52.344;12.990;2022-07-29T04:57:57;16.40;99.90
9662;DHT22;24982;52.344;12.990;2022-07-29T05:00:59;16.40;99.90
9662;DHT22;24982;52.344;12.990;2022-07-29T05:04:03;16.70;99.90
9662;DHT22;24982;52.344;12.990;2022-07-29T05:07:05;16.50;99.90
9662;DHT22;24982;52.344;12.990;2022-07-29T05:10:08;16.50;99.90
9662;DHT22;24982;52.344;12.990;2022-07-29T05:13:12;16.50;99.90
9662;DHT22;24982;52.344;12.990;2022-07-29T05:16:14;16.60;99.90
9662;DHT22;24982;52.344;12.990;2022-07-29T05:19:17;16.60;99.90
9662;DHT22;24982;52.344;12.990;2022-07-29T05:22:20;16.70;99.90
9662;DHT22;24982;52.344;12.990;2022-07-29T05:25:22;16.80;99.90
9662;DHT22;24982;52.344;12.990;2022-07-29T05:28:24;16.90;99.90
9662;DHT22;24982;52.344;12.990;2022-07-29T05:31:26;16.90;99.90
9662;DHT22;24982;52.344;12.990;2022-07-29T05:34:29;17.00;99.90
9662;DHT22;24982;52.344;12.990;2022-07-29T05:37:31;17.00;99.90
9662;DHT22;24982;52.344;12.990;2022-07-29T05:40:33;17.00;99.90
9662;DHT22;24982;52.344;12.990;2022-07-29T05:43:35;16.90;99.90
9662;DHT22;24982;52.344;12.990;2022-07-29T05:46:37;17.00;99.90
9662;DHT22;24982;52.344;12.990;2022-07-29T05:49:41;17.00;99.90
9662;DHT22;24982;52.344;12.990;2022-07-29T05:52:43;17.00;99.90
9662;DHT22;24982;52.344;12.990;2022-07-29T05:55:45;17.00;99.90
9662;DHT22;24982;52.344;12.990;2022-07-29T05:58:47;17.10;99.90
9662;DHT22;24982;52.344;12.990;2022-07-29T06:01:49;17.20;99.90
9662;DHT22;24982;52.344;12.990;2022-07-29T06:04:52;17.20;99.90
9662;DHT22;24982;52.344;12.990;2022-07-29T06:07:54;17.30;99.90
9662;DHT22;24982;52.344;12.990;2022-07-29T06:10:56;17.30;99.90
9662;DHT22;24982;52.344;12.990;2022-07-29T06:13:58;17.40;99.90
9662;DHT22;24982;52.344;12.990;2022-07-29T06:17:01;17.50;99.90
9662;DHT22;24982;52.344;12.990;2022-07-29T06:20:05;17.60;99.90
9662;DHT22;24982;52.344;12.990;2022-07-29T06:26:10;17.80;99.90
9662;DHT22;24982;52.344;12.990;2022-07-29T06:29:12;18.00;99.90
9662;DHT22;24982;52.344;12.990;2022-07-29T06:32:16;18.10;99.90
9662;DHT22;24982;52.344;12.990;2022-07-29T06:35:19;18.20;99.90
9662;DHT22;24982;52.344;12.990;2022-07-29T06:38:22;18.30;99.90
9662;DHT22;24982;52.344;12.990;2022-07-29T06:41:24;18.50;99.90
9662;DHT22;24982;52.344;12.990;2022-07-29T06:44:26;18.60;99.90
9662;DHT22;24982;52.344;12.990;2022-07-29T06:47:28;18.60;99.90
9662;DHT22;24982;52.344;12.990;2022-07-29T06:50:32;18.60;99.90
9662;DHT22;24982;52.344;12.990;2022-07-29T06:53:34;18.60;99.90
9662;DHT22;24982;52.344;12.990;2022-07-29T06:56:37;18.70;99.90
9662;DHT22;24982;52.344;12.990;2022-07-29T06:59:41;18.80;99.90
9662;DHT22;24982;52.344;12.990;2022-07-29T07:02:43;18.80;99.90
9662;DHT22;24982;52.344;12.990;2022-07-29T07:05:47;18.90;99.90
9662;DHT22;24982;52.344;12.990;2022-07-29T07:08:49;18.90;99.90
9662;DHT22;24982;52.344;12.990;2022-07-29T07:11:51;18.80;99.90
9662;DHT22;24982;52.344;12.990;2022-07-29T07:14:53;18.80;99.90
9662;DHT22;24982;52.344;12.990;2022-07-29T07:17:55;18.60;99.90
9662;DHT22;24982;52.344;12.990;2022-07-29T07:21:00;18.60;99.90
9662;DHT22;24982;52.344;12.990;2022-07-29T07:24:02;18.60;99.90
9662;DHT22;24982;52.344;12.990;2022-07-29T07:27:04;18.60;99.90
9662;DHT22;24982;52.344;12.990;2022-07-29T07:30:07;18.70;99.90
9662;DHT22;24982;52.344;12.990;2022-07-29T07:33:09;18.80;99.90
9662;DHT22;24982;52.344;12.990;2022-07-29T07:36:13;19.10;99.90
9662;DHT22;24982;52.344;12.990;2022-07-29T07:39:15;19.30;99.90
9662;DHT22;24982;52.344;12.990;2022-07-29T07:42:17;19.50;99.90
9662;DHT22;24982;52.344;12.990;2022-07-29T07:45:19;19.80;99.90
9662;DHT22;24982;52.344;12.990;2022-07-29T07:48:21;20.00;99.90
9662;DHT22;24982;52.344;12.990;2022-07-29T07:51:24;20.20;99.90
9662;DHT22;24982;52.344;12.990;2022-07-29T07:54:27;20.40;99.90
9662;DHT22;24982;52.344;12.990;2022-07-29T07:57:29;20.60;99.90
9662;DHT22;24982;52.344;12.990;2022-07-29T08:00:31;20.90;99.90
9662;DHT22;24982;52.344;12.990;2022-07-29T08:03:33;21.00;99.90
9662;DHT22;24982;52.344;12.990;2022-07-29T08:06:37;21.10;99.90
9662;DHT22;24982;52.344;12.990;2022-07-29T08:12:42;21.50;99.90
9662;DHT22;24982;52.344;12.990;2022-07-29T08:15:44;21.60;99.90
9662;DHT22;24982;52.344;12.990;2022-07-29T08:18:46;21.70;99.90
9662;DHT22;24982;52.344;12.990;2022-07-29T08:21:50;22.00;99.90
9662;DHT22;24982;52.344;12.990;2022-07-29T08:24:53;22.10;99.90
9662;DHT22;24982;52.344;12.990;2022-07-29T08:27:56;22.30;99.90
9662;DHT22;24982;52.344;12.990;2022-07-29T08:30:58;22.60;99.90
9662;DHT22;24982;52.344;12.990;2022-07-29T08:37:04;23.20;99.90
9662;DHT22;24982;52.344;12.990;2022-07-29T08:40:07;23.40;99.90
9662;DHT22;24982;52.344;12.990;2022-07-29T08:43:09;23.70;99.90
9662;DHT22;24982;52.344;12.990;2022-07-29T08:46:11;23.90;99.90
9662;DHT22;24982;52.344;12.990;2022-07-29T08:49:14;24.00;99.90
9662;DHT22;24982;52.344;12.990;2022-07-29T08:52:18;24.10;99.90
9662;DHT22;24982;52.344;12.990;2022-07-29T08:55:21;24.00;99.90
9662;DHT22;24982;52.344;12.990;2022-07-29T08:58:23;23.90;99.90
9662;DHT22;24982;52.344;12.990;2022-07-29T09:01:27;23.80;99.90
9662;DHT22;24982;52.344;12.990;2022-07-29T09:04:33;23.80;98.90
9662;DHT22;24982;52.344;12.990;2022-07-29T09:07:39;23.80;99.90
9662;DHT22;24982;52.344;12.990;2022-07-29T09:10:43;23.70;99.90
9662;DHT22;24982;52.344;12.990;2022-07-29T09:13:45;23.60;99.90
9662;DHT22;24982;52.344;12.990;2022-07-29T09:16:50;23.50;99.80
9662;DHT22;24982;52.344;12.990;2022-07-29T09:20:08;23.50;99.10
9662;DHT22;24982;52.344;12.990;2022-07-29T09:23:12;23.60;99.20
9662;DHT22;24982;52.344;12.990;2022-07-29T09:26:14;23.80;99.40
9662;DHT22;24982;52.344;12.990;2022-07-29T09:32:20;25.00;99.90
9662;DHT22;24982;52.344;12.990;2022-07-29T09:35:23;25.60;98.80
9662;DHT22;24982;52.344;12.990;2022-07-29T09:38:27;26.20;99.80
9662;DHT22;24982;52.344;12.990;2022-07-29T09:44:43;26.70;99.90
9662;DHT22;24982;52.344;12.990;2022-07-29T09:47:47;26.80;99.90
9662;DHT22;24982;52.344;12.990;2022-07-29T09:50:50;26.80;99.90
9662;DHT22;24982;52.344;12.990;2022-07-29T09:53:54;26.70;99.90
9662;DHT22;24982;52.344;12.990;2022-07-29T09:56:56;26.40;99.90
9662;DHT22;24982;52.344;12.990;2022-07-29T09:59:59;26.20;99.90
9662;DHT22;24982;52.344;12.990;2022-07-29T10:03:02;26.00;99.90
9662;DHT22;24982;52.344;12.990;2022-07-29T10:06:05;26.00;99.90
9662;DHT22;24982;52.344;12.990;2022-07-29T10:09:10;26.40;99.90
9662;DHT22;24982;52.344;12.990;2022-07-29T10:12:12;26.90;99.90
9662;DHT22;24982;52.344;12.990;2022-07-29T10:15:15;27.30;99.90
9662;DHT22;24982;52.344;12.990;2022-07-29T10:18:17;27.40;94.10
9662;DHT22;24982;52.344;12.990;2022-07-29T10:21:20;27.30;90.50
9662;DHT22;24982;52.344;12.990;2022-07-29T10:24:25;27.20;90.40
9662;DHT22;24982;52.344;12.990;2022-07-29T10:27:27;28.30;84.30
9662;DHT22;24982;52.344;12.990;2022-07-29T10:37:12;32.20;67.80
9662;DHT22;24982;52.344;12.990;2022-07-29T10:40:28;32.40;63.00
9662;DHT22;24982;52.344;12.990;2022-07-29T10:43:52;32.30;63.50
9662;DHT22;24982;52.344;12.990;2022-07-29T10:46:55;32.50;63.20
9662;DHT22;24982;52.344;12.990;2022-07-29T10:49:58;32.80;59.10
9662;DHT22;24982;52.344;12.990;2022-07-29T10:53:01;32.50;58.20
9662;DHT22;24982;52.344;12.990;2022-07-29T10:56:04;32.00;58.30
9662;DHT22;24982;52.344;12.990;2022-07-29T10:59:24;31.60;58.50
9662;DHT22;24982;52.344;12.990;2022-07-29T11:02:45;31.90;60.10
9662;DHT22;24982;52.344;12.990;2022-07-29T11:05:53;32.40;59.50
9662;DHT22;24982;52.344;12.990;2022-07-29T11:09:15;32.50;59.30
9662;DHT22;24982;52.344;12.990;2022-07-29T11:19:23;34.40;56.60
9662;DHT22;24982;52.344;12.990;2022-07-29T11:25:34;35.70;53.90
9662;DHT22;24982;52.344;12.990;2022-07-29T11:28:42;35.80;54.00
9662;DHT22;24982;52.344;12.990;2022-07-29T11:35:15;36.10;53.20
9662;DHT22;24982;52.344;12.990;2022-07-29T11:38:25;36.20;54.80
9662;DHT22;24982;52.344;12.990;2022-07-29T11:41:27;36.30;56.10
9662;DHT22;24982;52.344;12.990;2022-07-29T11:47:52;37.00;51.30
9662;DHT22;24982;52.344;12.990;2022-07-29T11:50:56;36.90;50.20
9662;DHT22;24982;52.344;12.990;2022-07-29T11:53:59;36.60;50.00
9662;DHT22;24982;52.344;12.990;2022-07-29T11:57:01;36.00;52.20
9662;DHT22;24982;52.344;12.990;2022-07-29T12:00:06;35.60;54.50
9662;DHT22;24982;52.344;12.990;2022-07-29T12:03:10;35.80;53.80
9662;DHT22;24982;52.344;12.990;2022-07-29T12:06:15;36.30;52.10
9662;DHT22;24982;52.344;12.990;2022-07-29T12:09:18;36.80;53.20
9662;DHT22;24982;52.344;12.990;2022-07-29T12:12:20;36.90;51.10
9662;DHT22;24982;52.344;12.990;2022-07-29T12:18:26;37.60;49.90
9662;DHT22;24982;52.344;12.990;2022-07-29T12:21:43;38.20;48.70
9662;DHT22;24982;52.344;12.990;2022-07-29T12:24:45;38.20;48.90
9662;DHT22;24982;52.344;12.990;2022-07-29T12:27:57;36.60;49.10
9662;DHT22;24982;52.344;12.990;2022-07-29T12:30:59;35.70;49.50
9662;DHT22;24982;52.344;12.990;2022-07-29T12:34:02;35.90;50.20
9662;DHT22;24982;52.344;12.990;2022-07-29T12:37:06;36.40;47.90
9662;DHT22;24982;52.344;12.990;2022-07-29T12:40:13;36.20;49.80
9662;DHT22;24982;52.344;12.990;2022-07-29T12:43:17;36.30;50.10
9662;DHT22;24982;52.344;12.990;2022-07-29T12:46:20;36.40;50.70
9662;DHT22;24982;52.344;12.990;2022-07-29T12:49:22;36.30;48.30
9662;DHT22;24982;52.344;12.990;2022-07-29T12:55:44;34.80;49.30
9662;DHT22;24982;52.344;12.990;2022-07-29T12:58:49;34.30;51.10
9662;DHT22;24982;52.344;12.990;2022-07-29T13:01:52;33.90;52.20
9662;DHT22;24982;52.344;12.990;2022-07-29T13:08:11;33.10;51.80
9662;DHT22;24982;52.344;12.990;2022-07-29T13:11:28;32.80;53.60
9662;DHT22;24982;52.344;12.990;2022-07-29T13:14:31;32.70;55.20
9662;DHT22;24982;52.344;12.990;2022-07-29T13:17:39;32.50;52.60
9662;DHT22;24982;52.344;12.990;2022-07-29T13:20:43;32.30;53.20
9662;DHT22;24982;52.344;12.990;2022-07-29T13:23:46;32.00;55.20
9662;DHT22;24982;52.344;12.990;2022-07-29T13:26:48;32.00;56.00
9662;DHT22;24982;52.344;12.990;2022-07-29T13:29:53;32.10;55.80
9662;DHT22;24982;52.344;12.990;2022-07-29T13:32:57;32.30;54.10
9662;DHT22;24982;52.344;12.990;2022-07-29T13:35:59;32.40;55.10
9662;DHT22;24982;52.344;12.990;2022-07-29T13:39:03;32.40;54.20
9662;DHT22;24982;52.344;12.990;2022-07-29T13:42:06;32.50;59.60
9662;DHT22;24982;52.344;12.990;2022-07-29T13:45:09;32.30;53.40
9662;DHT22;24982;52.344;12.990;2022-07-29T13:48:12;31.80;54.30
9662;DHT22;24982;52.344;12.990;2022-07-29T13:51:14;31.30;55.30
9662;DHT22;24982;52.344;12.990;2022-07-29T13:54:17;30.90;55.60
9662;DHT22;24982;52.344;12.990;2022-07-29T13:57:19;31.00;58.50
9662;DHT22;24982;52.344;12.990;2022-07-29T14:00:21;31.20;57.60
9662;DHT22;24982;52.344;12.990;2022-07-29T14:03:24;31.50;57.60
9662;DHT22;24982;52.344;12.990;2022-07-29T14:06:26;31.80;55.80
9662;DHT22;24982;52.344;12.990;2022-07-29T14:09:30;31.90;55.80
9662;DHT22;24982;52.344;12.990;2022-07-29T14:12:33;31.70;55.70
9662;DHT22;24982;52.344;12.990;2022-07-29T14:15:35;31.70;56.00
9662;DHT22;24982;52.344;12.990;2022-07-29T14:18:37;31.80;55.40
9662;DHT22;24982;52.344;12.990;2022-07-29T14:21:39;31.90;54.90
9662;DHT22;24982;52.344;12.990;2022-07-29T14:24:43;32.10;54.80
9662;DHT22;24982;52.344;12.990;2022-07-29T14:27:45;32.40;54.60
9662;DHT22;24982;52.344;12.990;2022-07-29T14:30:47;32.60;52.80
9662;DHT22;24982;52.344;12.990;2022-07-29T14:33:49;32.70;52.90
9662;DHT22;24982;52.344;12.990;2022-07-29T14:36:51;32.50;53.80
9662;DHT22;24982;52.344;12.990;2022-07-29T14:39:57;32.30;55.20
9662;DHT22;24982;52.344;12.990;2022-07-29T14:43:02;31.90;54.10
9662;DHT22;24982;52.344;12.990;2022-07-29T14:46:04;31.90;55.70
9662;DHT22;24982;52.344;12.990;2022-07-29T14:49:07;31.80;55.70
9662;DHT22;24982;52.344;12.990;2022-07-29T14:52:09;31.60;56.40
9662;DHT22;24982;52.344;12.990;2022-07-29T14:58:15;30.40;63.70
9662;DHT22;24982;52.344;12.990;2022-07-29T15:01:17;30.40;57.20
9662;DHT22;24982;52.344;12.990;2022-07-29T15:04:19;30.50;57.80
9662;DHT22;24982;52.344;12.990;2022-07-29T15:07:21;30.50;57.20
9662;DHT22;24982;52.344;12.990;2022-07-29T15:10:24;30.20;56.20
9662;DHT22;24982;52.344;12.990;2022-07-29T15:13:27;30.00;57.50
9662;DHT22;24982;52.344;12.990;2022-07-29T15:16:30;30.10;58.00
9662;DHT22;24982;52.344;12.990;2022-07-29T15:25:40;32.30;87.90
9662;DHT22;24982;52.344;12.990;2022-07-29T15:28:42;32.40;54.10
9662;DHT22;24982;52.344;12.990;2022-07-29T15:31:44;32.20;54.10
9662;DHT22;24982;52.344;12.990;2022-07-29T15:34:46;31.70;53.40
9662;DHT22;24982;52.344;12.990;2022-07-29T15:37:48;31.10;54.50
9662;DHT22;24982;52.344;12.990;2022-07-29T15:40:52;30.50;56.50
9662;DHT22;24982;52.344;12.990;2022-07-29T15:43:54;30.00;55.70
9662;DHT22;24982;52.344;12.990;2022-07-29T15:46:56;29.50;56.30
9662;DHT22;24982;52.344;12.990;2022-07-29T15:50:07;29.20;55.50
9662;DHT22;24982;52.344;12.990;2022-07-29T15:53:15;29.00;57.60
9662;DHT22;24982;52.344;12.990;2022-07-29T15:56:18;28.80;56.30
9662;DHT22;24982;52.344;12.990;2022-07-29T15:59:21;28.70;59.00
9662;DHT22;24982;52.344;12.990;2022-07-29T16:02:23;28.50;57.00
9662;DHT22;24982;52.344;12.990;2022-07-29T16:05:25;28.40;58.80
9662;DHT22;24982;52.344;12.990;2022-07-29T16:08:29;28.40;58.30
9662;DHT22;24982;52.344;12.990;2022-07-29T16:11:33;28.20;58.40
9662;DHT22;24982;52.344;12.990;2022-07-29T16:14:35;28.20;60.20
9662;DHT22;24982;52.344;12.990;2022-07-29T16:17:37;28.10;62.40
9662;DHT22;24982;52.344;12.990;2022-07-29T16:20:39;28.00;60.20
9662;DHT22;24982;52.344;12.990;2022-07-29T16:23:42;28.00;60.00
9662;DHT22;24982;52.344;12.990;2022-07-29T16:26:46;27.90;59.90
9662;DHT22;24982;52.344;12.990;2022-07-29T16:29:50;27.80;62.20
9662;DHT22;24982;52.344;12.990;2022-07-29T16:32:52;27.70;61.80
9662;DHT22;24982;52.344;12.990;2022-07-29T16:35:54;27.70;62.40
9662;DHT22;24982;52.344;12.990;2022-07-29T16:38:56;27.60;63.70
9662;DHT22;24982;52.344;12.990;2022-07-29T16:42:00;27.50;63.60
9662;DHT22;24982;52.344;12.990;2022-07-29T16:48:05;27.30;67.10
9662;DHT22;24982;52.344;12.990;2022-07-29T16:51:07;27.20;85.40
9662;DHT22;24982;52.344;12.990;2022-07-29T16:54:09;27.10;86.20
9662;DHT22;24982;52.344;12.990;2022-07-29T16:57:13;27.10;87.80
9662;DHT22;24982;52.344;12.990;2022-07-29T17:00:16;27.00;85.70
9662;DHT22;24982;52.344;12.990;2022-07-29T17:03:19;26.90;82.50
9662;DHT22;24982;52.344;12.990;2022-07-29T17:06:20;26.90;78.80
9662;DHT22;24982;52.344;12.990;2022-07-29T17:09:23;26.80;79.40
9662;DHT22;24982;52.344;12.990;2022-07-29T17:12:26;26.80;78.30
9662;DHT22;24982;52.344;12.990;2022-07-29T17:15:28;26.80;74.30
9662;DHT22;24982;52.344;12.990;2022-07-29T17:18:30;26.70;77.40
9662;DHT22;24982;52.344;12.990;2022-07-29T17:21:32;26.70;77.60
9662;DHT22;24982;52.344;12.990;2022-07-29T17:24:34;26.60;77.20
9662;DHT22;24982;52.344;12.990;2022-07-29T17:27:38;26.60;77.70
9662;DHT22;24982;52.344;12.990;2022-07-29T17:30:40;26.60;78.90
9662;DHT22;24982;52.344;12.990;2022-07-29T17:33:42;26.40;76.90
9662;DHT22;24982;52.344;12.990;2022-07-29T17:36:44;26.40;77.50
9662;DHT22;24982;52.344;12.990;2022-07-29T17:39:46;26.30;76.90
9662;DHT22;24982;52.344;12.990;2022-07-29T17:42:50;26.20;79.20
9662;DHT22;24982;52.344;12.990;2022-07-29T17:45:52;26.10;79.70
9662;DHT22;24982;52.344;12.990;2022-07-29T17:48:55;26.10;78.20
9662;DHT22;24982;52.344;12.990;2022-07-29T17:51:57;26.00;77.70
9662;DHT22;24982;52.344;12.990;2022-07-29T17:54:59;26.00;77.70
9662;DHT22;24982;52.344;12.990;2022-07-29T17:58:03;25.90;80.90
9662;DHT22;24982;52.344;12.990;2022-07-29T18:01:05;25.90;79.10
9662;DHT22;24982;52.344;12.990;2022-07-29T18:04:08;25.80;80.40
9662;DHT22;24982;52.344;12.990;2022-07-29T18:07:10;25.80;81.40
9662;DHT22;24982;52.344;12.990;2022-07-29T18:10:13;25.70;79.50
9662;DHT22;24982;52.344;12.990;2022-07-29T18:13:16;25.60;79.30
9662;DHT22;24982;52.344;12.990;2022-07-29T18:16:19;25.60;79.10
9662;DHT22;24982;52.344;12.990;2022-07-29T18:19:21;25.50;78.00
9662;DHT22;24982;52.344;12.990;2022-07-29T18:22:23;25.50;80.00
9662;DHT22;24982;52.344;12.990;2022-07-29T18:25:25;25.40;79.00
9662;DHT22;24982;52.344;12.990;2022-07-29T18:28:29;25.40;79.30
9662;DHT22;24982;52.344;12.990;2022-07-29T18:31:32;25.30;79.50
9662;DHT22;24982;52.344;12.990;2022-07-29T18:34:34;25.30;81.00
9662;DHT22;24982;52.344;12.990;2022-07-29T18:37:37;25.20;82.40
9662;DHT22;24982;52.344;12.990;2022-07-29T18:40:39;25.10;83.20
9662;DHT22;24982;52.344;12.990;2022-07-29T18:43:43;25.00;80.90
9662;DHT22;24982;52.344;12.990;2022-07-29T18:46:46;24.90;81.10
9662;DHT22;24982;52.344;12.990;2022-07-29T18:49:48;24.80;81.90
9662;DHT22;24982;52.344;12.990;2022-07-29T18:52:50;24.80;81.40
9662;DHT22;24982;52.344;12.990;2022-07-29T18:55:52;24.70;82.50
9662;DHT22;24982;52.344;12.990;2022-07-29T18:58:56;24.60;83.70
9662;DHT22;24982;52.344;12.990;2022-07-29T19:01:58;24.50;82.80
9662;DHT22;24982;52.344;12.990;2022-07-29T19:05:00;24.40;83.00
9662;DHT22;24982;52.344;12.990;2022-07-29T19:08:02;24.40;82.30
9662;DHT22;24982;52.344;12.990;2022-07-29T19:11:04;24.40;80.90
9662;DHT22;24982;52.344;12.990;2022-07-29T19:14:08;24.30;81.00
9662;DHT22;24982;52.344;12.990;2022-07-29T19:17:10;24.30;81.90
9662;DHT22;24982;52.344;12.990;2022-07-29T19:20:12;24.20;82.60
9662;DHT22;24982;52.344;12.990;2022-07-29T19:23:14;24.10;80.60
9662;DHT22;24982;52.344;12.990;2022-07-29T19:26:16;24.10;81.00
9662;DHT22;24982;52.344;12.990;2022-07-29T19:29:21;24.10;80.00
9662;DHT22;24982;52.344;12.990;2022-07-29T19:32:24;24.10;80.00
9662;DHT22;24982;52.344;12.990;2022-07-29T19:35:27;24.00;79.80
9662;DHT22;24982;52.344;12.990;2022-07-29T19:38:31;24.00;80.70
9662;DHT22;24982;52.344;12.990;2022-07-29T19:41:33;24.00;80.20
9662;DHT22;24982;52.344;12.990;2022-07-29T19:44:36;23.90;80.00
9662;DHT22;24982;52.344;12.990;2022-07-29T19:47:38;23.80;80.40
9662;DHT22;24982;52.344;12.990;2022-07-29T19:50:41;24.00;80.60
9662;DHT22;24982;52.344;12.990;2022-07-29T19:53:43;23.70;80.50
9662;DHT22;24982;52.344;12.990;2022-07-29T19:56:46;23.70;80.40
9662;DHT22;24982;52.344;12.990;2022-07-29T19:59:49;23.60;80.10
9662;DHT22;24982;52.344;12.990;2022-07-29T20:02:51;23.70;80.10
9662;DHT22;24982;52.344;12.990;2022-07-29T20:05:53;23.60;79.60
9662;DHT22;24982;52.344;12.990;2022-07-29T20:08:56;23.70;80.00
9662;DHT22;24982;52.344;12.990;2022-07-29T20:11:58;23.60;79.90
9662;DHT22;24982;52.344;12.990;2022-07-29T20:15:02;23.60;80.80
9662;DHT22;24982;52.344;12.990;2022-07-29T20:18:06;23.60;80.80
9662;DHT22;24982;52.344;12.990;2022-07-29T20:21:08;23.50;80.70
9662;DHT22;24982;52.344;12.990;2022-07-29T20:24:11;23.50;80.40